Time;durP1;ratioP1;P1;durP2;ratioP2;P2;SDS_P1;SDS_P2;PMS_P1;PMS_P2;Temp;Humidity;BMP_temperature;BMP_pressure;BME280_temperature;BME280_humidity;BME280_pressure;Samples;Min_cycle;Max_cycle;Signal;HPM_P1;HPM_P2
2020/12/03 00:02:05;;;;;;;58.17;25.33;;;1.10;98.00;;;;;;5054499;28;20033;-77
2020/12/03 00:04:31;;;;;;;68.53;29.80;;;1.10;97.90;;;;;;5054285;28;20033;-78
2020/12/03 00:07:00;;;;;;;52.30;25.83;;;1.10;97.80;;;;;;5053259;28;20021;-78
2020/12/03 00:09:26;;;;;;;55.63;26.83;;;1.10;97.70;;;;;;5054438;28;20025;-79
2020/12/03 00:11:59;;;;;;;58.03;28.33;;;1.10;97.70;;;;;;5055244;28;20383;-80
2020/12/03 00:14:25;;;;;;;;;;;1.10;97.70;;;;;;5056014;28;20021;-82
2020/12/03 00:16:52;;;;;;;63.97;26.88;;;1.10;97.70;;;;;;5055972;28;19931;-80
2020/12/03 00:19:21;;;;;;;55.92;25.23;;;1.10;97.90;;;;;;5054512;28;20115;-81
2020/12/03 00:21:49;;;;;;;54.60;24.17;;;1.20;98.00;;;;;;5055858;28;20025;-80
2020/12/03 00:24:24;;;;;;;48.45;24.25;;;1.20;98.00;;;;;;5055442;28;20376;-80
2020/12/03 00:26:51;;;;;;;41.58;21.50;;;1.20;98.00;;;;;;5054976;28;20052;-80
2020/12/03 00:29:18;;;;;;;47.90;21.75;;;1.30;98.00;;;;;;5055353;28;20064;-80
2020/12/03 00:31:45;;;;;;;54.13;23.20;;;1.30;98.00;;;;;;5055608;28;20511;-80
2020/12/03 00:34:11;;;;;;;48.25;23.10;;;1.30;98.00;;;;;;5054315;28;20029;-82
2020/12/03 00:36:38;;;;;;;45.47;23.20;;;1.30;97.90;;;;;;5053899;28;20476;-80
2020/12/03 00:39:07;;;;;;;47.58;22.75;;;1.30;97.80;;;;;;5055067;28;20025;-81
2020/12/03 00:41:33;;;;;;;54.60;23.58;;;1.30;97.80;;;;;;5053739;28;20056;-80
2020/12/03 00:43:59;;;;;;;50.35;23.13;;;1.30;97.70;;;;;;5055642;28;20357;-81
2020/12/03 00:46:30;;;;;;;48.53;21.75;;;1.20;97.70;;;;;;5053751;28;20021;-80
2020/12/03 00:48:56;;;;;;;40.13;18.98;;;1.20;98.00;;;;;;5055188;28;20017;-80
2020/12/03 00:51:23;;;;;;;50.28;22.30;;;1.20;97.70;;;;;;5054209;28;20052;-77
2020/12/03 00:53:49;;;;;;;53.90;24.08;;;1.20;97.60;;;;;;5053694;28;20104;-79
2020/12/03 00:56:18;;;;;;;46.70;22.08;;;1.20;97.60;;;;;;5054060;28;20128;-79
2020/12/03 00:58:44;;;;;;;52.35;24.77;;;1.20;97.70;;;;;;5053012;28;20391;-80
2020/12/03 01:01:12;;;;;;;52.17;23.55;;;1.10;97.60;;;;;;5052964;28;20029;-80
2020/12/03 01:03:38;;;;;;;50.17;22.00;;;1.10;97.70;;;;;;5053819;28;20077;-75
2020/12/03 01:06:04;;;;;;;46.95;22.13;;;1.20;97.70;;;;;;5053038;28;20025;-80
2020/12/03 01:08:30;;;;;;;50.00;24.00;;;1.20;97.70;;;;;;5054640;28;20415;-81
2020/12/03 01:10:56;;;;;;;40.60;20.42;;;1.10;97.60;;;;;;5052912;28;20067;-80
2020/12/03 01:13:23;;;;;;;50.53;23.38;;;1.10;97.50;;;;;;5052380;28;20029;-81
2020/12/03 01:15:48;;;;;;;45.88;22.88;;;1.10;97.60;;;;;;5053486;28;20078;-81
2020/12/03 01:18:15;;;;;;;45.47;20.48;;;1.00;97.60;;;;;;5053845;28;20053;-81
2020/12/03 01:20:41;;;;;;;44.75;20.73;;;1.10;97.60;;;;;;5051716;28;20024;-80
2020/12/03 01:23:07;;;;;;;44.10;20.33;;;1.10;97.60;;;;;;5053148;28;20025;-81
2020/12/03 01:25:35;;;;;;;43.08;20.85;;;1.10;97.60;;;;;;5053029;28;20422;-82
2020/12/03 01:28:01;;;;;;;42.22;20.48;;;1.10;97.60;;;;;;5054558;28;20024;-81
2020/12/03 01:30:27;;;;;;;44.42;22.98;;;1.10;97.70;;;;;;5054235;28;20028;-81
2020/12/03 01:32:53;;;;;;;36.83;20.45;;;1.10;97.70;;;;;;5052999;28;20021;-81
2020/12/03 01:35:19;;;;;;;40.42;19.42;;;1.10;97.70;;;;;;5053260;28;20542;-81
2020/12/03 01:37:50;;;;;;;46.65;22.10;;;1.10;97.60;;;;;;5054378;28;20100;-81
2020/12/03 01:40:23;;;;;;;43.05;22.08;;;1.00;97.50;;;;;;5053881;28;20013;-79
2020/12/03 01:42:49;;;;;;;;;;;1.00;97.50;;;;;;5053873;28;20025;-79
2020/12/03 01:45:53;;;;;;;42.95;21.15;;;1.00;97.50;;;;;;5052696;28;19912;-78
2020/12/03 01:48:37;;;;;;;38.55;19.73;;;1.00;97.50;;;;;;5051377;28;20103;-78
2020/12/03 01:51:07;;;;;;;39.50;22.05;;;1.00;97.60;;;;;;5052710;28;20017;-78
2020/12/03 01:53:34;;;;;;;43.80;21.63;;;1.00;97.60;;;;;;5052585;28;20059;-79
2020/12/03 01:56:04;;;;;;;40.05;20.58;;;1.00;97.60;;;;;;5052497;28;20032;-79
2020/12/03 01:58:44;;;;;;;39.33;21.30;;;1.00;97.70;;;;;;5052686;28;20045;-79
2020/12/03 02:01:11;;;;;;;43.10;20.65;;;1.00;97.60;;;;;;5052540;28;20064;-79
2020/12/03 02:03:46;;;;;;;42.30;20.73;;;1.00;97.60;;;;;;5050787;28;20357;-77
2020/12/03 02:06:26;;;;;;;38.80;20.05;;;1.00;97.60;;;;;;5052581;28;20075;-79
2020/12/03 02:08:53;;;;;;;39.08;20.27;;;0.90;97.60;;;;;;5051432;28;20017;-78
2020/12/03 02:11:20;;;;;;;44.45;21.52;;;1.00;97.60;;;;;;5052310;28;20021;-79
2020/12/03 02:13:59;;;;;;;45.42;21.98;;;1.00;97.60;;;;;;5051673;28;20175;-78
2020/12/03 02:16:28;;;;;;;49.45;23.15;;;1.00;97.70;;;;;;5052961;28;20021;-78
2020/12/03 02:18:54;;;;;;;44.70;22.58;;;1.00;97.60;;;;;;5053178;28;20021;-78
2020/12/03 02:21:20;;;;;;;49.10;23.80;;;1.00;97.60;;;;;;5051606;28;20029;-79
2020/12/03 02:23:46;;;;;;;39.78;20.85;;;1.00;97.60;;;;;;5052637;28;20468;-78
2020/12/03 02:26:13;;;;;;;47.78;23.67;;;1.00;97.70;;;;;;5052714;28;20021;-78
2020/12/03 02:28:39;;;;;;;43.85;22.42;;;1.00;97.70;;;;;;5052498;28;20032;-78
2020/12/03 02:31:05;;;;;;;46.97;22.27;;;1.00;97.50;;;;;;5052961;28;20021;-79
2020/12/03 02:33:31;;;;;;;53.30;24.63;;;0.90;97.50;;;;;;5052317;28;20052;-78
2020/12/03 02:35:57;;;;;;;53.35;25.42;;;1.00;97.50;;;;;;5052668;28;20372;-79
2020/12/03 02:38:24;;;;;;;49.88;24.45;;;1.00;97.50;;;;;;5052721;28;20025;-78
2020/12/03 02:40:50;;;;;;;52.83;24.50;;;1.00;97.60;;;;;;5051169;28;20422;-78
2020/12/03 02:43:16;;;;;;;52.53;24.80;;;1.00;97.60;;;;;;5052545;28;20021;-79
2020/12/03 02:45:43;;;;;;;52.95;24.83;;;1.00;97.60;;;;;;5051236;28;20026;-77
2020/12/03 02:48:09;;;;;;;52.38;24.20;;;1.00;97.60;;;;;;5052383;28;20021;-78
2020/12/03 02:50:35;;;;;;;49.60;24.58;;;1.00;97.60;;;;;;5052412;28;20534;-79
2020/12/03 02:53:00;;;;;;;57.72;25.88;;;0.90;97.50;;;;;;5052319;28;20029;-79
2020/12/03 02:55:26;;;;;;;54.53;25.38;;;0.90;97.50;;;;;;5052594;28;20048;-78
2020/12/03 02:57:52;;;;;;;58.42;26.27;;;0.90;97.50;;;;;;5052177;28;20495;-78
2020/12/03 03:00:17;;;;;;;55.72;23.92;;;0.90;97.50;;;;;;5051052;28;20045;-78
2020/12/03 03:02:43;;;;;;;54.80;24.35;;;0.90;97.50;;;;;;5052019;28;20031;-79
2020/12/03 03:05:09;;;;;;;54.65;25.63;;;0.90;97.50;;;;;;5052181;28;20795;-77
2020/12/03 03:07:35;;;;;;;57.05;25.48;;;0.90;97.60;;;;;;5051988;28;20033;-78
2020/12/03 03:10:00;;;;;;;60.88;26.30;;;0.90;97.60;;;;;;5051992;28;20021;-79
2020/12/03 03:12:26;;;;;;;52.28;25.38;;;1.00;97.60;;;;;;5051881;28;20021;-79
2020/12/03 03:14:53;;;;;;;58.25;25.50;;;1.00;97.70;;;;;;5071097;28;20040;-77
2020/12/03 03:17:20;;;;;;;60.28;26.13;;;1.00;97.60;;;;;;5072781;28;20048;-77
2020/12/03 03:19:45;;;;;;;62.92;26.50;;;1.00;97.60;;;;;;5072712;28;20035;-76
2020/12/03 03:22:11;;;;;;;62.70;26.35;;;1.00;97.60;;;;;;5072584;28;20410;-76
2020/12/03 03:24:37;;;;;;;61.72;27.45;;;1.00;97.60;;;;;;5072532;28;20591;-75
2020/12/03 03:27:02;;;;;;;53.33;24.67;;;1.00;97.60;;;;;;5072780;28;20028;-76
2020/12/03 03:29:28;;;;;;;56.28;26.65;;;1.00;97.50;;;;;;5072883;28;20425;-76
2020/12/03 03:31:54;;;;;;;66.95;29.02;;;1.00;97.50;;;;;;5072948;28;20032;-76
2020/12/03 03:34:19;;;;;;;62.95;28.05;;;1.00;97.40;;;;;;5072788;28;20041;-76
2020/12/03 03:36:45;;;;;;;72.68;28.73;;;1.00;97.50;;;;;;5072702;28;20035;-76
2020/12/03 03:39:18;;;;;;;64.53;29.25;;;0.90;97.40;;;;;;5072805;28;20032;-76
2020/12/03 03:41:44;;;;;;;71.05;29.65;;;0.90;97.50;;;;;;5072569;28;20493;-78
2020/12/03 03:44:10;;;;;;;65.18;27.88;;;0.90;97.30;;;;;;5072735;28;20112;-77
2020/12/03 03:46:35;;;;;;;65.95;30.15;;;0.80;97.30;;;;;;5058666;28;20057;-79
2020/12/03 03:49:01;;;;;;;74.15;29.70;;;0.80;97.60;;;;;;5055783;28;20098;-80
2020/12/03 03:51:27;;;;;;;70.70;29.02;;;0.80;97.40;;;;;;5055470;28;20025;-80
2020/12/03 03:53:53;;;;;;;81.78;31.33;;;0.80;97.40;;;;;;5055636;28;20025;-79
2020/12/03 03:56:18;;;;;;;67.47;26.42;;;0.80;97.40;;;;;;5055808;28;20475;-79
2020/12/03 03:58:44;;;;;;;84.95;31.95;;;0.80;97.40;;;;;;5055235;28;20067;-79
2020/12/03 04:01:10;;;;;;;79.68;32.45;;;0.80;97.50;;;;;;5053818;28;20037;-77
2020/12/03 04:03:35;;;;;;;85.95;34.47;;;0.80;97.50;;;;;;5054263;28;20021;-78
2020/12/03 04:06:01;;;;;;;73.45;29.48;;;0.80;97.50;;;;;;5054217;28;20021;-78
2020/12/03 04:08:28;;;;;;;85.55;31.23;;;0.80;97.50;;;;;;5052912;28;20158;-77
2020/12/03 04:10:54;;;;;;;78.28;31.75;;;0.80;97.50;;;;;;5054289;28;20060;-78
2020/12/03 04:13:23;;;;;;;76.22;31.30;;;0.80;97.50;;;;;;5053123;28;20029;-78
2020/12/03 04:15:49;;;;;;;71.95;29.17;;;0.80;97.50;;;;;;5054566;28;20021;-78
2020/12/03 04:18:15;;;;;;;88.90;34.03;;;0.80;97.80;;;;;;5052969;28;20032;-77
2020/12/03 04:20:41;;;;;;;80.40;33.13;;;0.80;97.50;;;;;;5053996;28;20111;-77
2020/12/03 04:23:07;;;;;;;84.55;33.15;;;0.80;97.60;;;;;;5053744;28;20147;-78
2020/12/03 04:25:32;;;;;;;82.57;33.72;;;0.80;97.60;;;;;;5053701;28;20024;-77
2020/12/03 04:27:58;;;;;;;82.40;34.72;;;0.80;97.60;;;;;;5053148;28;20033;-78
2020/12/03 04:30:24;;;;;;;86.43;34.47;;;0.80;97.50;;;;;;5053787;28;20051;-78
2020/12/03 04:32:50;;;;;;;84.47;35.05;;;0.80;97.50;;;;;;5052761;28;20066;-80
2020/12/03 04:35:17;;;;;;;86.75;36.10;;;0.80;97.60;;;;;;5053341;28;20025;-80
2020/12/03 04:37:47;;;;;;;83.20;36.85;;;0.80;97.80;;;;;;5053972;28;20017;-80
2020/12/03 04:40:31;;;;;;;82.20;33.70;;;0.80;97.50;;;;;;5054134;28;20078;-80
2020/12/03 04:43:04;;;;;;;79.82;32.63;;;0.80;97.50;;;;;;5053935;28;20464;-80
2020/12/03 04:45:54;;;;;;;83.13;33.60;;;0.80;97.50;;;;;;5054358;28;20475;-80
2020/12/03 04:48:33;;;;;;;78.95;32.53;;;0.80;97.50;;;;;;5054254;28;20087;-81
2020/12/03 04:51:13;;;;;;;91.18;37.60;;;0.70;97.40;;;;;;5054327;28;20029;-80
2020/12/03 04:54:07;;;;;;;93.40;35.85;;;0.70;97.50;;;;;;5053985;28;20025;-81
2020/12/03 04:57:02;;;;;;;106.60;41.28;;;0.70;97.50;;;;;;5054009;28;20494;-80
2020/12/03 04:59:56;;;;;;;91.78;37.20;;;0.70;97.50;;;;;;5054090;28;20650;-80
2020/12/03 05:02:59;;;;;;;108.63;43.55;;;0.70;97.40;;;;;;5053996;28;20043;-80
2020/12/03 05:05:48;;;;;;;84.10;35.83;;;0.70;97.50;;;;;;5054242;28;20021;-79
2020/12/03 05:08:28;;;;;;;91.20;37.88;;;0.70;97.50;;;;;;5052310;28;20040;-80
2020/12/03 05:10:54;;;;;;;81.93;33.50;;;0.70;97.50;;;;;;5054537;28;20031;-81
2020/12/03 05:13:21;;;;;;;90.95;36.08;;;0.70;97.60;;;;;;5052961;28;20096;-77
2020/12/03 05:15:50;;;;;;;83.55;33.17;;;0.70;97.50;;;;;;5052879;28;20430;-77
2020/12/03 05:18:57;;;;;;;79.18;33.05;;;0.70;97.50;;;;;;5052677;28;20021;-78
2020/12/03 05:21:27;;;;;;;75.03;30.85;;;0.60;97.50;;;;;;5030484;28;20129;-77
2020/12/03 05:23:53;;;;;;;73.63;29.90;;;0.70;97.60;;;;;;5030378;28;20033;-78
2020/12/03 05:26:25;;;;;;;84.78;34.15;;;0.70;97.60;;;;;;5013582;28;20060;-78
2020/12/03 05:29:21;;;;;;;77.85;34.47;;;0.70;97.60;;;;;;5030743;28;20029;-77
2020/12/03 05:31:47;;;;;;;87.97;33.63;;;0.70;97.60;;;;;;5026799;28;20037;-78
2020/12/03 05:34:18;;;;;;;77.10;32.47;;;0.80;97.60;;;;;;5029833;28;20057;-77
2020/12/03 05:36:55;;;;;;;76.97;33.22;;;0.70;97.60;;;;;;5013318;28;20029;-78
2020/12/03 05:39:32;;;;;;;79.93;32.20;;;0.70;97.50;;;;;;5029875;28;20272;-78
2020/12/03 05:42:02;;;;;;;84.05;30.88;;;0.70;97.60;;;;;;5029764;28;20038;-78
2020/12/03 05:44:28;;;;;;;74.25;30.65;;;0.70;97.60;;;;;;5030061;28;20646;-78
2020/12/03 05:46:56;;;;;;;76.57;30.83;;;0.80;97.70;;;;;;5029650;28;20030;-77
2020/12/03 05:49:25;;;;;;;72.70;29.08;;;0.80;97.60;;;;;;5030800;28;20647;-82
2020/12/03 05:52:33;;;;;;;72.47;28.63;;;0.80;97.50;;;;;;5028746;28;20037;-81
2020/12/03 05:55:07;;;;;;;84.35;32.10;;;0.70;97.50;;;;;;5017760;28;20042;-82
2020/12/03 05:57:39;;;;;;;80.20;33.13;;;0.70;97.50;;;;;;5011917;28;20034;-80
2020/12/03 06:00:29;;;;;;;80.07;31.58;;;0.70;97.60;;;;;;5011556;28;20111;-80
2020/12/03 06:03:26;;;;;;;84.70;32.88;;;0.70;97.60;;;;;;4992854;28;20100;-78
2020/12/03 06:06:41;;;;;;;76.15;31.60;;;0.70;97.60;;;;;;4993369;28;20150;-79
2020/12/03 06:09:28;;;;;;;79.63;32.72;;;0.80;97.70;;;;;;4993465;28;20543;-74
2020/12/03 06:12:15;;;;;;;81.63;33.45;;;0.80;97.70;;;;;;4993115;28;20065;-76
2020/12/03 06:15:15;;;;;;;73.95;29.98;;;0.80;97.70;;;;;;4992617;28;20022;-76
2020/12/03 06:18:06;;;;;;;78.70;32.13;;;0.80;97.70;;;;;;5025520;28;20099;-75
2020/12/03 06:20:43;;;;;;;82.57;30.58;;;0.90;97.70;;;;;;5009016;28;20388;-76
2020/12/03 06:23:27;;;;;;;77.90;31.13;;;0.90;97.70;;;;;;4993903;28;20030;-76
2020/12/03 06:26:11;;;;;;;79.88;32.58;;;0.90;97.60;;;;;;4992327;28;20161;-77
2020/12/03 06:28:49;;;;;;;79.68;30.98;;;0.80;97.50;;;;;;5009189;28;20217;-77
2020/12/03 06:31:28;;;;;;;94.97;33.97;;;0.80;97.60;;;;;;5015359;28;20367;-82
2020/12/03 06:34:17;;;;;;;95.53;32.58;;;0.80;97.60;;;;;;5050598;28;20113;-73
2020/12/03 06:36:52;;;;;;;75.38;28.15;;;0.90;97.70;;;;;;5049316;28;20055;-74
2020/12/03 06:39:43;;;;;;;82.47;32.03;;;0.90;97.70;;;;;;5049797;28;20083;-74
2020/12/03 06:42:27;;;;;;;71.40;28.77;;;0.90;97.60;;;;;;5050120;28;20037;-74
2020/12/03 06:44:58;;;;;;;66.18;26.77;;;0.90;97.70;;;;;;5049683;28;20450;-75
2020/12/03 06:47:42;;;;;;;67.30;28.92;;;0.90;97.60;;;;;;5049819;28;20727;-74
2020/12/03 06:50:16;;;;;;;63.40;26.23;;;0.90;97.70;;;;;;5050426;28;20021;-74
2020/12/03 06:53:18;;;;;;;70.85;30.30;;;0.90;97.60;;;;;;5053866;28;20017;-74
2020/12/03 06:55:47;;;;;;;75.75;28.73;;;1.00;97.70;;;;;;5053708;28;20032;-75
2020/12/03 06:58:24;;;;;;;79.55;29.65;;;1.00;97.70;;;;;;5053680;28;20029;-73
2020/12/03 07:01:11;;;;;;;111.45;42.45;;;1.10;97.70;;;;;;5053707;28;20079;-75
2020/12/03 07:03:55;;;;;;;83.63;32.33;;;1.00;97.50;;;;;;5053935;28;20536;-74
2020/12/03 07:06:24;;;;;;;111.90;34.70;;;1.10;97.90;;;;;;5053496;28;20100;-74
2020/12/03 07:09:16;;;;;;;113.05;37.40;;;1.10;97.60;;;;;;5053443;28;20079;-75
2020/12/03 07:12:02;;;;;;;118.93;36.40;;;1.10;97.70;;;;;;5053618;28;20378;-73
2020/12/03 07:14:55;;;;;;;117.05;36.85;;;1.10;97.70;;;;;;5053622;28;20356;-75
2020/12/03 07:17:39;;;;;;;;;;;1.20;97.70;;;;;;5054502;28;20459;-74
2020/12/03 07:20:35;;;;;;;73.10;24.50;;;1.20;97.60;;;;;;5054021;28;20282;-75
2020/12/03 07:23:09;;;;;;;80.32;29.98;;;1.10;97.50;;;;;;5053365;28;20114;-72
2020/12/03 07:25:34;;;;;;;76.32;29.33;;;1.10;97.50;;;;;;5053482;28;20021;-74
2020/12/03 07:28:00;;;;;;;84.53;30.88;;;1.00;97.50;;;;;;5053596;28;20032;-74
2020/12/03 07:30:41;;;;;;;86.03;33.65;;;1.10;97.50;;;;;;5052127;28;20029;-75
2020/12/03 07:33:23;;;;;;;90.15;34.67;;;1.00;97.50;;;;;;5053598;28;20021;-75
2020/12/03 07:36:01;;;;;;;92.93;35.67;;;1.10;97.60;;;;;;5052863;28;20078;-74
2020/12/03 07:38:39;;;;;;;88.05;34.13;;;1.10;97.70;;;;;;5052940;28;20021;-74
2020/12/03 07:41:05;;;;;;;83.22;32.42;;;1.20;97.90;;;;;;5051795;28;20059;-75
2020/12/03 07:43:37;;;;;;;92.40;35.88;;;1.30;97.90;;;;;;5053221;28;20025;-75
2020/12/03 07:46:28;;;;;;;94.43;33.97;;;1.30;97.80;;;;;;5052934;28;20036;-75
2020/12/03 07:48:55;;;;;;;87.65;36.03;;;1.30;97.70;;;;;;5053342;28;20036;-74
2020/12/03 07:51:23;;;;;;;109.43;38.05;;;1.30;97.70;;;;;;5053257;28;20024;-74
2020/12/03 07:54:15;;;;;;;135.38;41.97;;;1.40;97.70;;;;;;5051334;28;20123;-73
2020/12/03 07:56:43;;;;;;;117.80;40.07;;;1.40;97.90;;;;;;5051704;28;20086;-76
2020/12/03 07:59:24;;;;;;;139.25;46.17;;;1.50;97.80;;;;;;5052885;28;20499;-77
2020/12/03 08:01:54;;;;;;;156.50;50.05;;;1.50;97.80;;;;;;5050510;28;20387;-76
2020/12/03 08:04:29;;;;;;;168.07;52.42;;;1.50;97.80;;;;;;5052596;28;20017;-76
2020/12/03 08:07:03;;;;;;;173.52;55.35;;;1.60;97.80;;;;;;5052826;28;20036;-74
2020/12/03 08:09:46;;;;;;;175.40;53.05;;;1.60;97.80;;;;;;5052931;28;20036;-75
2020/12/03 08:12:16;;;;;;;160.60;54.05;;;1.60;97.70;;;;;;5046282;28;20083;-75
2020/12/03 08:14:44;;;;;;;190.02;58.40;;;1.60;97.60;;;;;;5040271;28;20423;-76
2020/12/03 08:17:22;;;;;;;189.90;60.42;;;1.70;97.70;;;;;;5032446;28;20375;-75
2020/12/03 08:19:57;;;;;;;161.13;56.95;;;1.70;97.60;;;;;;5032530;28;20104;-75
2020/12/03 08:22:24;;;;;;;116.70;42.33;;;1.60;97.60;;;;;;5030907;28;20387;-75
2020/12/03 08:25:00;;;;;;;109.95;38.90;;;1.70;97.60;;;;;;5037717;28;20083;-77
2020/12/03 08:27:26;;;;;;;89.82;34.13;;;1.70;97.60;;;;;;5050833;28;20031;-77
2020/12/03 08:29:51;;;;;;;84.38;31.48;;;1.70;97.40;;;;;;5051667;28;20394;-74
2020/12/03 08:32:17;;;;;;;94.28;32.83;;;1.70;97.50;;;;;;5051704;28;20032;-76
2020/12/03 08:34:43;;;;;;;86.80;32.50;;;1.70;97.50;;;;;;5052596;28;20103;-77
2020/12/03 08:37:24;;;;;;;76.00;32.13;;;1.70;97.50;;;;;;5053118;28;20036;-79
2020/12/03 08:39:55;;;;;;;76.82;32.38;;;1.70;97.50;;;;;;5052780;28;20021;-76
2020/12/03 08:42:21;;;;;;;80.18;33.20;;;1.70;97.40;;;;;;5052568;28;20021;-77
2020/12/03 08:44:49;;;;;;;83.00;33.53;;;1.80;97.60;;;;;;5052746;28;20472;-77
2020/12/03 08:47:34;;;;;;;89.28;36.45;;;1.80;97.50;;;;;;5053026;28;20021;-75
2020/12/03 08:50:02;;;;;;;84.70;31.38;;;1.90;97.50;;;;;;5052818;28;20071;-77
2020/12/03 08:52:31;;;;;;;74.82;32.15;;;1.90;97.50;;;;;;5052479;28;20325;-76
2020/12/03 08:55:05;;;;;;;90.05;33.60;;;2.00;97.60;;;;;;5051115;28;20025;-77
2020/12/03 08:57:36;;;;;;;76.95;32.92;;;2.00;97.60;;;;;;5052393;28;20064;-76
2020/12/03 09:00:05;;;;;;;72.90;32.28;;;2.10;97.60;;;;;;5051911;28;20045;-76
2020/12/03 09:02:32;;;;;;;86.97;35.00;;;2.10;97.70;;;;;;5052124;28;20078;-75
2020/12/03 09:04:59;;;;;;;78.13;32.17;;;2.30;97.70;;;;;;5051844;28;20017;-75
2020/12/03 09:07:30;;;;;;;77.00;33.25;;;2.30;97.60;;;;;;5052090;28;20024;-75
2020/12/03 09:09:58;;;;;;;71.18;26.35;;;2.40;97.70;;;;;;5052523;28;20025;-75
2020/12/03 09:12:29;;;;;;;76.55;28.45;;;2.40;97.30;;;;;;5050580;28;20033;-75
2020/12/03 09:15:00;;;;;;;82.73;31.10;;;2.30;97.20;;;;;;5050441;28;20025;-74
2020/12/03 09:17:28;;;;;;;72.35;28.75;;;2.30;97.30;;;;;;5052124;28;20617;-74
2020/12/03 09:19:54;;;;;;;68.15;27.50;;;2.40;97.30;;;;;;5049931;28;20025;-75
2020/12/03 09:22:23;;;;;;;74.97;30.73;;;2.30;97.20;;;;;;5050236;28;20117;-76
2020/12/03 09:24:50;;;;;;;83.50;32.33;;;2.40;97.20;;;;;;5052127;28;20029;-76
2020/12/03 09:27:16;;;;;;;89.72;37.15;;;2.30;97.20;;;;;;5050574;28;20048;-74
2020/12/03 09:29:52;;;;;;;82.20;32.67;;;2.30;97.20;;;;;;5050646;28;20379;-75
2020/12/03 09:32:21;;;;;;;71.13;29.65;;;2.40;97.30;;;;;;5051613;28;20025;-74
2020/12/03 09:34:50;;;;;;;82.65;32.47;;;2.40;97.20;;;;;;5051837;28;20438;-75
2020/12/03 09:37:16;;;;;;;74.70;31.42;;;2.40;97.00;;;;;;5051637;28;20398;-74
2020/12/03 09:39:42;;;;;;;75.47;33.08;;;2.40;97.10;;;;;;5051543;28;20061;-74
2020/12/03 09:42:15;;;;;;;89.50;33.80;;;2.40;97.00;;;;;;5051543;28;20071;-74
2020/12/03 09:44:46;;;;;;;89.55;32.72;;;2.40;97.10;;;;;;5051551;28;20098;-76
2020/12/03 09:47:17;;;;;;;79.18;30.38;;;2.40;97.20;;;;;;5050519;28;20382;-76
2020/12/03 09:49:45;;;;;;;81.38;31.00;;;2.50;97.30;;;;;;5051385;28;20021;-74
2020/12/03 09:52:14;;;;;;;62.13;25.00;;;2.60;97.40;;;;;;5051325;28;20417;-75
2020/12/03 09:54:41;;;;;;;67.18;28.02;;;2.70;97.30;;;;;;5051176;28;20067;-76
2020/12/03 09:57:11;;;;;;;78.88;29.80;;;2.70;97.00;;;;;;5051355;28;20021;-75
2020/12/03 09:59:38;;;;;;;74.72;31.17;;;2.60;96.70;;;;;;5050919;28;20057;-75
2020/12/03 10:02:07;;;;;;;81.18;33.50;;;2.60;96.70;;;;;;5051248;28;20037;-75
2020/12/03 10:05:14;;;;;;;89.13;33.85;;;2.50;96.60;;;;;;5050162;28;20025;-76
2020/12/03 10:07:48;;;;;;;71.95;29.15;;;2.40;96.60;;;;;;5051527;28;20071;-77
2020/12/03 10:10:32;;;;;;;77.75;31.92;;;2.40;96.70;;;;;;5051237;28;20414;-76
2020/12/03 10:13:08;;;;;;;88.30;34.20;;;2.40;96.70;;;;;;5052570;28;20102;-76
2020/12/03 10:16:04;;;;;;;69.70;28.73;;;2.30;96.60;;;;;;5050698;28;20074;-76
2020/12/03 10:18:54;;;;;;;76.40;30.58;;;2.30;96.60;;;;;;5049227;28;20104;-76
2020/12/03 10:21:23;;;;;;;80.78;31.23;;;2.20;96.50;;;;;;5045717;28;20504;-76
2020/12/03 10:24:09;;;;;;;77.35;29.88;;;2.20;96.50;;;;;;5050278;28;20025;-74
2020/12/03 10:26:48;;;;;;;82.35;30.58;;;2.20;96.50;;;;;;5049934;28;20029;-74
2020/12/03 10:29:32;;;;;;;82.43;34.13;;;2.10;96.60;;;;;;5050860;28;20028;-74
2020/12/03 10:32:11;;;;;;;78.45;31.85;;;2.10;96.40;;;;;;5050697;28;20323;-73
2020/12/03 10:34:46;;;;;;;62.63;27.58;;;2.10;96.80;;;;;;5049848;28;20033;-72
2020/12/03 10:37:51;;;;;;;76.82;32.20;;;2.10;96.70;;;;;;5051110;28;20472;-74
2020/12/03 10:40:18;;;;;;;83.78;32.75;;;2.10;96.60;;;;;;5047221;28;20044;-75
2020/12/03 10:42:51;;;;;;;81.65;31.33;;;2.10;96.30;;;;;;5050707;28;20547;-74
2020/12/03 10:45:23;;;;;;;79.75;32.75;;;2.00;96.40;;;;;;5050660;28;20448;-74
2020/12/03 10:47:53;;;;;;;;;;;2.10;96.60;;;;;;5051176;28;20056;-76
2020/12/03 10:50:20;;;;;;;89.57;35.35;;;2.10;96.70;;;;;;5051394;28;20282;-76
2020/12/03 10:52:47;;;;;;;92.35;37.90;;;2.10;96.60;;;;;;5054023;28;20033;-77
2020/12/03 10:55:19;;;;;;;91.50;33.83;;;2.10;96.60;;;;;;5049312;28;20021;-76
2020/12/03 10:58:01;;;;;;;92.35;36.65;;;2.00;96.40;;;;;;5050447;28;20112;-75
2020/12/03 11:00:28;;;;;;;86.22;36.20;;;2.00;96.50;;;;;;5050341;28;20048;-76
2020/12/03 11:03:00;;;;;;;97.68;38.53;;;2.00;96.50;;;;;;5050336;28;20056;-76
2020/12/03 11:05:27;;;;;;;79.47;33.13;;;2.00;96.60;;;;;;5050587;28;20025;-76
2020/12/03 11:07:54;;;;;;;88.68;31.10;;;2.00;96.50;;;;;;5050506;28;20067;-76
2020/12/03 11:10:21;;;;;;;92.47;36.28;;;2.00;96.30;;;;;;5050525;28;20092;-76
2020/12/03 11:12:50;;;;;;;92.93;35.38;;;2.00;96.30;;;;;;5050725;28;20021;-75
2020/12/03 11:15:20;;;;;;;96.93;34.97;;;1.90;96.30;;;;;;5050279;28;20107;-75
2020/12/03 11:17:56;;;;;;;84.10;33.88;;;1.80;96.20;;;;;;5048254;28;20025;-74
2020/12/03 11:20:23;;;;;;;68.88;31.17;;;1.80;96.20;;;;;;5050058;28;20036;-75
2020/12/03 11:23:02;;;;;;;80.53;29.77;;;1.80;96.50;;;;;;5050230;28;20036;-76
2020/12/03 11:25:29;;;;;;;80.97;31.60;;;1.90;96.50;;;;;;5050445;28;20021;-75
2020/12/03 11:28:00;;;;;;;82.72;31.20;;;1.80;96.30;;;;;;5050266;28;20021;-76
2020/12/03 11:30:27;;;;;;;80.07;31.35;;;1.90;96.60;;;;;;5050316;28;20074;-76
2020/12/03 11:32:56;;;;;;;86.32;34.42;;;1.90;96.60;;;;;;5050377;28;20103;-75
2020/12/03 11:35:24;;;;;;;87.03;34.78;;;1.90;96.40;;;;;;5050747;28;20051;-76
2020/12/03 11:37:52;;;;;;;93.00;34.72;;;1.90;96.40;;;;;;5052374;28;20391;-75
2020/12/03 11:40:27;;;;;;;104.65;37.83;;;1.90;96.30;;;;;;5053494;28;20088;-76
2020/12/03 11:50:39;;;;;;;92.60;34.72;;;1.90;96.50;;;;;;5053029;28;20025;-75
2020/12/03 11:53:06;;;;;;;87.00;33.65;;;1.90;96.50;;;;;;5053746;28;20032;-76
2020/12/03 11:55:38;;;;;;;90.32;32.65;;;1.80;96.30;;;;;;5053614;28;20021;-75
2020/12/03 11:58:06;;;;;;;85.30;33.55;;;1.80;96.20;;;;;;5053557;28;20017;-76
2020/12/03 12:00:32;;;;;;;99.18;35.03;;;1.80;96.10;;;;;;5051907;28;20036;-75
2020/12/03 12:03:02;;;;;;;91.45;33.85;;;1.70;96.30;;;;;;5053594;28;20360;-75
2020/12/03 12:08:14;;;;;;;89.55;33.13;;;1.70;96.10;;;;;;5052637;28;20482;-75
2020/12/03 12:11:11;;;;;;;92.25;33.20;;;1.70;96.10;;;;;;5052969;28;20051;-75
2020/12/03 12:13:27;;;;;;;100.00;36.22;;;1.60;96.20;;;;;;5052570;28;20037;-76
2020/12/03 12:15:53;;;;;;;98.25;36.08;;;1.60;96.40;;;;;;5052314;28;20021;-76
2020/12/03 12:18:18;;;;;;;85.35;32.33;;;1.60;96.30;;;;;;5052703;28;20455;-76
2020/12/03 12:20:46;;;;;;;69.88;30.60;;;1.70;96.30;;;;;;5052613;28;20028;-75
2020/12/03 12:23:12;;;;;;;75.22;32.95;;;1.60;96.30;;;;;;5052502;28;20037;-76
2020/12/03 12:25:37;;;;;;;91.32;37.72;;;1.70;96.40;;;;;;5052300;28;20453;-81
2020/12/03 12:28:03;;;;;;;104.97;40.05;;;1.70;96.50;;;;;;5052545;28;20096;-79
2020/12/03 12:30:31;;;;;;;104.70;41.25;;;1.70;96.50;;;;;;5052734;28;20060;-75
2020/12/03 12:32:57;;;;;;;99.20;37.78;;;1.80;96.40;;;;;;5051786;28;20036;-76
2020/12/03 12:35:23;;;;;;;99.35;39.25;;;1.70;96.20;;;;;;5051796;28;20036;-76
2020/12/03 12:37:49;;;;;;;103.60;39.45;;;1.70;96.40;;;;;;5052335;28;20028;-76
2020/12/03 12:40:15;;;;;;;81.90;33.45;;;1.60;96.10;;;;;;5052154;28;20029;-75
2020/12/03 12:42:40;;;;;;;97.32;36.85;;;1.60;96.20;;;;;;5051867;28;20061;-75
2020/12/03 12:45:07;;;;;;;84.38;35.33;;;1.70;96.30;;;;;;5052306;28;20396;-76
2020/12/03 12:47:32;;;;;;;90.70;36.05;;;1.70;96.30;;;;;;5050287;28;20501;-76
2020/12/03 12:49:58;;;;;;;106.65;38.80;;;1.60;96.20;;;;;;5051535;28;20036;-75
2020/12/03 12:52:24;;;;;;;91.55;37.25;;;1.60;96.20;;;;;;5051991;28;20079;-75
2020/12/03 12:54:49;;;;;;;93.90;37.42;;;1.70;96.40;;;;;;5051833;28;20078;-77
2020/12/03 12:57:15;;;;;;;89.22;37.00;;;1.70;96.20;;;;;;5050169;28;20037;-76
2020/12/03 12:59:41;;;;;;;91.50;37.60;;;1.60;96.20;;;;;;5051496;28;20068;-75
2020/12/03 13:02:07;;;;;;;84.53;33.10;;;1.60;96.20;;;;;;5051348;28;20071;-76
2020/12/03 13:04:33;;;;;;;89.70;38.42;;;1.60;96.20;;;;;;5050018;28;20021;-76
2020/12/03 13:07:04;;;;;;;81.95;33.97;;;1.60;96.00;;;;;;5051875;28;20083;-75
2020/12/03 13:09:32;;;;;;;85.28;33.15;;;1.50;95.80;;;;;;5051649;28;20032;-75
2020/12/03 13:11:58;;;;;;;90.25;35.47;;;1.50;95.90;;;;;;5050428;28;20029;-75
2020/12/03 13:14:26;;;;;;;92.95;38.00;;;1.50;96.00;;;;;;5050975;28;20379;-77